sensor_id;sensor_type;location;lat;lon;timestamp;P1;durP1;ratioP1;P2;durP2;ratioP2
33858;SDS011;20156;47.486;12.074;2022-11-18T00:01:11;9.80;;;6.73;;
33858;SDS011;20156;47.486;12.074;2022-11-18T00:03:38;8.73;;;6.90;;
33858;SDS011;20156;47.486;12.074;2022-11-18T00:06:05;8.70;;;6.90;;
33858;SDS011;20156;47.486;12.074;2022-11-18T00:08:31;10.67;;;8.03;;
33858;SDS011;20156;47.486;12.074;2022-11-18T00:10:57;8.20;;;6.40;;
33858;SDS011;20156;47.486;12.074;2022-11-18T00:13:22;8.17;;;6.13;;
33858;SDS011;20156;47.486;12.074;2022-11-18T00:16:07;10.90;;;6.57;;
33858;SDS011;20156;47.486;12.074;2022-11-18T00:18:36;8.37;;;6.47;;
33858;SDS011;20156;47.486;12.074;2022-11-18T00:21:03;8.10;;;6.30;;
33858;SDS011;20156;47.486;12.074;2022-11-18T00:23:30;7.47;;;5.43;;
33858;SDS011;20156;47.486;12.074;2022-11-18T00:26:00;9.43;;;6.30;;
33858;SDS011;20156;47.486;12.074;2022-11-18T00:28:30;7.30;;;5.83;;
33858;SDS011;20156;47.486;12.074;2022-11-18T00:31:00;8.03;;;6.10;;
33858;SDS011;20156;47.486;12.074;2022-11-18T00:33:35;5.90;;;5.30;;
33858;SDS011;20156;47.486;12.074;2022-11-18T00:36:01;7.23;;;5.50;;
33858;SDS011;20156;47.486;12.074;2022-11-18T00:38:28;6.80;;;5.93;;
33858;SDS011;20156;47.486;12.074;2022-11-18T00:40:58;7.10;;;6.10;;
33858;SDS011;20156;47.486;12.074;2022-11-18T00:43:34;9.10;;;6.70;;
33858;SDS011;20156;47.486;12.074;2022-11-18T00:45:59;10.27;;;7.53;;
33858;SDS011;20156;47.486;12.074;2022-11-18T00:48:25;10.30;;;7.63;;
33858;SDS011;20156;47.486;12.074;2022-11-18T00:50:51;9.80;;;6.60;;
33858;SDS011;20156;47.486;12.074;2022-11-18T00:53:18;9.57;;;6.53;;
33858;SDS011;20156;47.486;12.074;2022-11-18T00:55:44;8.83;;;6.53;;
33858;SDS011;20156;47.486;12.074;2022-11-18T00:58:10;9.90;;;7.07;;
33858;SDS011;20156;47.486;12.074;2022-11-18T01:00:39;7.80;;;6.57;;
33858;SDS011;20156;47.486;12.074;2022-11-18T01:03:06;8.80;;;6.40;;
33858;SDS011;20156;47.486;12.074;2022-11-18T01:05:31;8.00;;;6.37;;
33858;SDS011;20156;47.486;12.074;2022-11-18T01:07:57;7.60;;;6.30;;
33858;SDS011;20156;47.486;12.074;2022-11-18T01:10:22;7.47;;;6.30;;
33858;SDS011;20156;47.486;12.074;2022-11-18T01:12:48;8.97;;;6.20;;
33858;SDS011;20156;47.486;12.074;2022-11-18T01:15:36;7.37;;;6.17;;
33858;SDS011;20156;47.486;12.074;2022-11-18T01:18:05;7.23;;;6.30;;
33858;SDS011;20156;47.486;12.074;2022-11-18T01:20:32;8.30;;;6.33;;
33858;SDS011;20156;47.486;12.074;2022-11-18T01:22:58;8.13;;;6.47;;
33858;SDS011;20156;47.486;12.074;2022-11-18T01:25:23;8.40;;;6.70;;
33858;SDS011;20156;47.486;12.074;2022-11-18T01:27:49;8.60;;;6.43;;
33858;SDS011;20156;47.486;12.074;2022-11-18T01:30:14;7.27;;;6.20;;
33858;SDS011;20156;47.486;12.074;2022-11-18T01:32:41;7.60;;;6.10;;
33858;SDS011;20156;47.486;12.074;2022-11-18T01:35:07;9.60;;;7.50;;
33858;SDS011;20156;47.486;12.074;2022-11-18T01:37:33;9.97;;;7.40;;
33858;SDS011;20156;47.486;12.074;2022-11-18T01:39:58;6.60;;;5.93;;
33858;SDS011;20156;47.486;12.074;2022-11-18T01:42:24;6.83;;;6.17;;
33858;SDS011;20156;47.486;12.074;2022-11-18T01:47:54;8.47;;;6.37;;
33858;SDS011;20156;47.486;12.074;2022-11-18T01:50:39;8.13;;;6.03;;
33858;SDS011;20156;47.486;12.074;2022-11-18T01:53:09;10.20;;;6.80;;
33858;SDS011;20156;47.486;12.074;2022-11-18T01:55:40;7.40;;;6.70;;
33858;SDS011;20156;47.486;12.074;2022-11-18T01:58:11;7.33;;;6.53;;
33858;SDS011;20156;47.486;12.074;2022-11-18T02:00:42;6.57;;;5.83;;
33858;SDS011;20156;47.486;12.074;2022-11-18T02:03:07;7.20;;;6.03;;
33858;SDS011;20156;47.486;12.074;2022-11-18T02:05:33;7.70;;;6.30;;
33858;SDS011;20156;47.486;12.074;2022-11-18T02:08:00;7.03;;;6.17;;
33858;SDS011;20156;47.486;12.074;2022-11-18T02:10:27;8.57;;;5.90;;
33858;SDS011;20156;47.486;12.074;2022-11-18T02:12:52;7.23;;;6.53;;
33858;SDS011;20156;47.486;12.074;2022-11-18T02:15:22;9.07;;;7.40;;
33858;SDS011;20156;47.486;12.074;2022-11-18T02:17:55;12.37;;;7.60;;
33858;SDS011;20156;47.486;12.074;2022-11-18T02:20:36;8.47;;;7.50;;
33858;SDS011;20156;47.486;12.074;2022-11-18T02:25:50;9.87;;;8.13;;
33858;SDS011;20156;47.486;12.074;2022-11-18T02:28:34;8.10;;;7.23;;
33858;SDS011;20156;47.486;12.074;2022-11-18T02:31:10;9.93;;;7.63;;
33858;SDS011;20156;47.486;12.074;2022-11-18T02:33:52;12.50;;;8.10;;
33858;SDS011;20156;47.486;12.074;2022-11-18T02:37:27;11.50;;;8.07;;
33858;SDS011;20156;47.486;12.074;2022-11-18T02:39:33;10.00;;;7.27;;
33858;SDS011;20156;47.486;12.074;2022-11-18T02:42:04;9.80;;;7.37;;
33858;SDS011;20156;47.486;12.074;2022-11-18T02:44:33;8.90;;;6.87;;
33858;SDS011;20156;47.486;12.074;2022-11-18T02:47:02;9.13;;;7.60;;
33858;SDS011;20156;47.486;12.074;2022-11-18T02:49:34;7.97;;;7.00;;
33858;SDS011;20156;47.486;12.074;2022-11-18T02:52:04;10.07;;;8.20;;
33858;SDS011;20156;47.486;12.074;2022-11-18T02:54:32;10.83;;;7.90;;
33858;SDS011;20156;47.486;12.074;2022-11-18T02:57:00;12.23;;;7.13;;
33858;SDS011;20156;47.486;12.074;2022-11-18T02:59:27;9.03;;;7.37;;
33858;SDS011;20156;47.486;12.074;2022-11-18T03:01:53;9.17;;;6.80;;
33858;SDS011;20156;47.486;12.074;2022-11-18T03:04:18;8.03;;;6.93;;
33858;SDS011;20156;47.486;12.074;2022-11-18T03:06:48;9.67;;;7.20;;
33858;SDS011;20156;47.486;12.074;2022-11-18T03:09:32;7.50;;;6.33;;
33858;SDS011;20156;47.486;12.074;2022-11-18T03:13:04;10.20;;;7.07;;
33858;SDS011;20156;47.486;12.074;2022-11-18T03:17:58;7.50;;;6.00;;
33858;SDS011;20156;47.486;12.074;2022-11-18T03:20:30;9.63;;;7.97;;
33858;SDS011;20156;47.486;12.074;2022-11-18T03:23:05;9.37;;;7.50;;
33858;SDS011;20156;47.486;12.074;2022-11-18T03:25:50;8.03;;;7.23;;
33858;SDS011;20156;47.486;12.074;2022-11-18T03:28:35;15.37;;;8.90;;
33858;SDS011;20156;47.486;12.074;2022-11-18T03:31:16;16.90;;;9.03;;
33858;SDS011;20156;47.486;12.074;2022-11-18T03:33:48;34.97;;;12.80;;
33858;SDS011;20156;47.486;12.074;2022-11-18T03:36:22;23.10;;;11.60;;
33858;SDS011;20156;47.486;12.074;2022-11-18T03:38:51;25.60;;;12.03;;
33858;SDS011;20156;47.486;12.074;2022-11-18T03:41:21;18.97;;;12.33;;
33858;SDS011;20156;47.486;12.074;2022-11-18T03:43:52;18.23;;;11.77;;
33858;SDS011;20156;47.486;12.074;2022-11-18T03:46:42;12.57;;;9.83;;
33858;SDS011;20156;47.486;12.074;2022-11-18T03:49:16;16.33;;;12.57;;
33858;SDS011;20156;47.486;12.074;2022-11-18T03:51:53;13.77;;;11.07;;
33858;SDS011;20156;47.486;12.074;2022-11-18T03:54:23;18.17;;;12.23;;
33858;SDS011;20156;47.486;12.074;2022-11-18T04:00:16;17.50;;;10.73;;
33858;SDS011;20156;47.486;12.074;2022-11-18T04:02:44;12.80;;;10.23;;
33858;SDS011;20156;47.486;12.074;2022-11-18T04:05:11;12.13;;;9.73;;
33858;SDS011;20156;47.486;12.074;2022-11-18T04:10:34;11.43;;;9.83;;
33858;SDS011;20156;47.486;12.074;2022-11-18T04:15:35;21.63;;;14.07;;
33858;SDS011;20156;47.486;12.074;2022-11-18T04:18:04;23.37;;;14.67;;
33858;SDS011;20156;47.486;12.074;2022-11-18T04:20:29;31.23;;;16.23;;
33858;SDS011;20156;47.486;12.074;2022-11-18T04:22:56;40.30;;;16.40;;
33858;SDS011;20156;47.486;12.074;2022-11-18T04:25:21;32.03;;;15.87;;
33858;SDS011;20156;47.486;12.074;2022-11-18T04:27:48;35.47;;;16.60;;
33858;SDS011;20156;47.486;12.074;2022-11-18T04:30:14;29.07;;;16.77;;
33858;SDS011;20156;47.486;12.074;2022-11-18T04:32:40;26.27;;;15.13;;
33858;SDS011;20156;47.486;12.074;2022-11-18T04:35:06;22.90;;;15.10;;
33858;SDS011;20156;47.486;12.074;2022-11-18T04:37:31;20.57;;;13.70;;
33858;SDS011;20156;47.486;12.074;2022-11-18T04:39:57;29.63;;;15.50;;
33858;SDS011;20156;47.486;12.074;2022-11-18T04:42:22;24.77;;;15.40;;
33858;SDS011;20156;47.486;12.074;2022-11-18T04:44:48;28.90;;;17.70;;
33858;SDS011;20156;47.486;12.074;2022-11-18T04:47:13;22.83;;;15.13;;
33858;SDS011;20156;47.486;12.074;2022-11-18T04:49:38;22.93;;;14.70;;
33858;SDS011;20156;47.486;12.074;2022-11-18T04:52:04;21.97;;;14.20;;
33858;SDS011;20156;47.486;12.074;2022-11-18T04:54:30;18.83;;;12.90;;
33858;SDS011;20156;47.486;12.074;2022-11-18T04:56:55;20.60;;;14.80;;
33858;SDS011;20156;47.486;12.074;2022-11-18T04:59:25;17.87;;;13.00;;
33858;SDS011;20156;47.486;12.074;2022-11-18T05:01:52;17.00;;;12.63;;
33858;SDS011;20156;47.486;12.074;2022-11-18T05:04:19;15.60;;;11.67;;
33858;SDS011;20156;47.486;12.074;2022-11-18T05:06:46;19.50;;;13.43;;
33858;SDS011;20156;47.486;12.074;2022-11-18T05:09:12;19.83;;;13.97;;
33858;SDS011;20156;47.486;12.074;2022-11-18T05:11:38;18.93;;;12.93;;
33858;SDS011;20156;47.486;12.074;2022-11-18T05:14:26;23.27;;;14.10;;
33858;SDS011;20156;47.486;12.074;2022-11-18T05:16:53;20.73;;;13.37;;
33858;SDS011;20156;47.486;12.074;2022-11-18T05:19:19;22.67;;;14.10;;
33858;SDS011;20156;47.486;12.074;2022-11-18T05:21:45;25.70;;;16.40;;
33858;SDS011;20156;47.486;12.074;2022-11-18T05:24:10;27.77;;;16.97;;
33858;SDS011;20156;47.486;12.074;2022-11-18T05:26:36;25.27;;;16.67;;
33858;SDS011;20156;47.486;12.074;2022-11-18T05:29:02;23.57;;;16.83;;
33858;SDS011;20156;47.486;12.074;2022-11-18T05:31:27;24.93;;;16.70;;
33858;SDS011;20156;47.486;12.074;2022-11-18T05:33:53;21.87;;;14.53;;
33858;SDS011;20156;47.486;12.074;2022-11-18T05:36:19;21.20;;;16.37;;
33858;SDS011;20156;47.486;12.074;2022-11-18T05:38:45;21.27;;;15.37;;
33858;SDS011;20156;47.486;12.074;2022-11-18T05:41:11;21.17;;;16.73;;
33858;SDS011;20156;47.486;12.074;2022-11-18T05:43:57;21.73;;;15.30;;
33858;SDS011;20156;47.486;12.074;2022-11-18T05:46:23;19.77;;;14.83;;
33858;SDS011;20156;47.486;12.074;2022-11-18T05:48:48;20.00;;;14.87;;
33858;SDS011;20156;47.486;12.074;2022-11-18T05:51:14;21.97;;;16.10;;
33858;SDS011;20156;47.486;12.074;2022-11-18T05:53:40;19.30;;;14.33;;
33858;SDS011;20156;47.486;12.074;2022-11-18T05:56:14;21.33;;;16.17;;
33858;SDS011;20156;47.486;12.074;2022-11-18T05:58:46;19.50;;;14.80;;
33858;SDS011;20156;47.486;12.074;2022-11-18T06:01:12;21.23;;;17.00;;
33858;SDS011;20156;47.486;12.074;2022-11-18T06:03:44;21.93;;;17.53;;
33858;SDS011;20156;47.486;12.074;2022-11-18T06:06:09;22.93;;;17.33;;
33858;SDS011;20156;47.486;12.074;2022-11-18T06:08:40;19.27;;;16.80;;
33858;SDS011;20156;47.486;12.074;2022-11-18T06:11:11;20.43;;;17.70;;
33858;SDS011;20156;47.486;12.074;2022-11-18T06:13:41;19.77;;;15.77;;
33858;SDS011;20156;47.486;12.074;2022-11-18T06:16:14;24.30;;;16.90;;
33858;SDS011;20156;47.486;12.074;2022-11-18T06:18:44;20.40;;;16.37;;
33858;SDS011;20156;47.486;12.074;2022-11-18T06:21:09;19.57;;;16.13;;
33858;SDS011;20156;47.486;12.074;2022-11-18T06:23:36;20.57;;;15.83;;
33858;SDS011;20156;47.486;12.074;2022-11-18T06:26:03;20.90;;;15.27;;
33858;SDS011;20156;47.486;12.074;2022-11-18T06:28:29;18.93;;;14.23;;
33858;SDS011;20156;47.486;12.074;2022-11-18T06:30:55;21.67;;;15.10;;
33858;SDS011;20156;47.486;12.074;2022-11-18T06:33:20;17.47;;;14.63;;
33858;SDS011;20156;47.486;12.074;2022-11-18T06:35:45;18.63;;;14.57;;
33858;SDS011;20156;47.486;12.074;2022-11-18T06:38:11;18.20;;;15.07;;
33858;SDS011;20156;47.486;12.074;2022-11-18T06:40:36;20.57;;;16.73;;
33858;SDS011;20156;47.486;12.074;2022-11-18T06:43:05;18.77;;;14.87;;
33858;SDS011;20156;47.486;12.074;2022-11-18T06:45:50;27.10;;;21.77;;
33858;SDS011;20156;47.486;12.074;2022-11-18T06:48:34;21.60;;;16.70;;
33858;SDS011;20156;47.486;12.074;2022-11-18T06:50:59;19.40;;;16.30;;
33858;SDS011;20156;47.486;12.074;2022-11-18T06:53:24;21.97;;;16.83;;
33858;SDS011;20156;47.486;12.074;2022-11-18T06:55:50;28.97;;;21.33;;
33858;SDS011;20156;47.486;12.074;2022-11-18T06:58:15;31.43;;;20.23;;
33858;SDS011;20156;47.486;12.074;2022-11-18T07:00:41;20.53;;;16.10;;
33858;SDS011;20156;47.486;12.074;2022-11-18T07:03:06;19.20;;;15.20;;
33858;SDS011;20156;47.486;12.074;2022-11-18T07:05:31;19.40;;;15.70;;
33858;SDS011;20156;47.486;12.074;2022-11-18T07:07:57;21.10;;;15.83;;
33858;SDS011;20156;47.486;12.074;2022-11-18T07:10:23;20.37;;;15.43;;
33858;SDS011;20156;47.486;12.074;2022-11-18T07:12:48;20.67;;;16.47;;
33858;SDS011;20156;47.486;12.074;2022-11-18T07:15:14;22.53;;;16.60;;
33858;SDS011;20156;47.486;12.074;2022-11-18T07:17:39;25.13;;;17.80;;
33858;SDS011;20156;47.486;12.074;2022-11-18T07:20:05;22.27;;;17.13;;
33858;SDS011;20156;47.486;12.074;2022-11-18T07:22:30;20.53;;;16.17;;
33858;SDS011;20156;47.486;12.074;2022-11-18T07:24:56;19.07;;;15.00;;
33858;SDS011;20156;47.486;12.074;2022-11-18T07:27:21;20.33;;;15.60;;
33858;SDS011;20156;47.486;12.074;2022-11-18T07:29:47;23.37;;;16.37;;
33858;SDS011;20156;47.486;12.074;2022-11-18T07:32:12;23.03;;;17.60;;
33858;SDS011;20156;47.486;12.074;2022-11-18T07:34:37;22.17;;;19.67;;
33858;SDS011;20156;47.486;12.074;2022-11-18T07:37:03;21.93;;;17.00;;
33858;SDS011;20156;47.486;12.074;2022-11-18T07:39:28;15.60;;;11.83;;
33858;SDS011;20156;47.486;12.074;2022-11-18T07:41:54;16.33;;;12.83;;
33858;SDS011;20156;47.486;12.074;2022-11-18T07:44:19;17.90;;;15.33;;
33858;SDS011;20156;47.486;12.074;2022-11-18T07:46:44;20.93;;;17.53;;
33858;SDS011;20156;47.486;12.074;2022-11-18T07:49:10;19.27;;;14.70;;
33858;SDS011;20156;47.486;12.074;2022-11-18T07:51:37;20.70;;;16.00;;
33858;SDS011;20156;47.486;12.074;2022-11-18T07:54:04;17.40;;;14.07;;
33858;SDS011;20156;47.486;12.074;2022-11-18T07:56:31;19.93;;;16.43;;
33858;SDS011;20156;47.486;12.074;2022-11-18T07:58:56;21.73;;;17.20;;
33858;SDS011;20156;47.486;12.074;2022-11-18T08:01:23;22.37;;;18.30;;
33858;SDS011;20156;47.486;12.074;2022-11-18T08:03:52;20.87;;;16.67;;
33858;SDS011;20156;47.486;12.074;2022-11-18T08:06:18;22.03;;;17.17;;
33858;SDS011;20156;47.486;12.074;2022-11-18T08:08:44;23.20;;;18.43;;
33858;SDS011;20156;47.486;12.074;2022-11-18T08:11:11;24.67;;;18.23;;
33858;SDS011;20156;47.486;12.074;2022-11-18T08:13:41;22.37;;;18.83;;
33858;SDS011;20156;47.486;12.074;2022-11-18T08:16:13;17.70;;;15.27;;
33858;SDS011;20156;47.486;12.074;2022-11-18T08:18:40;16.70;;;14.70;;
33858;SDS011;20156;47.486;12.074;2022-11-18T08:21:07;18.90;;;15.67;;
33858;SDS011;20156;47.486;12.074;2022-11-18T08:23:32;28.67;;;25.17;;
33858;SDS011;20156;47.486;12.074;2022-11-18T08:26:02;24.77;;;15.67;;
33858;SDS011;20156;47.486;12.074;2022-11-18T08:28:29;16.40;;;14.40;;
33858;SDS011;20156;47.486;12.074;2022-11-18T08:30:54;19.00;;;13.30;;
33858;SDS011;20156;47.486;12.074;2022-11-18T08:33:20;14.37;;;11.90;;
33858;SDS011;20156;47.486;12.074;2022-11-18T08:35:45;16.63;;;13.53;;
33858;SDS011;20156;47.486;12.074;2022-11-18T08:38:11;30.90;;;27.40;;
33858;SDS011;20156;47.486;12.074;2022-11-18T08:40:36;68.20;;;60.83;;
33858;SDS011;20156;47.486;12.074;2022-11-18T08:43:03;74.37;;;64.03;;
33858;SDS011;20156;47.486;12.074;2022-11-18T08:45:28;37.33;;;33.27;;
33858;SDS011;20156;47.486;12.074;2022-11-18T08:47:54;24.60;;;22.00;;
33858;SDS011;20156;47.486;12.074;2022-11-18T08:50:19;17.83;;;15.70;;
33858;SDS011;20156;47.486;12.074;2022-11-18T08:52:44;14.60;;;12.40;;
33858;SDS011;20156;47.486;12.074;2022-11-18T08:55:10;15.80;;;13.87;;
33858;SDS011;20156;47.486;12.074;2022-11-18T08:57:35;19.07;;;17.20;;
33858;SDS011;20156;47.486;12.074;2022-11-18T09:00:01;18.00;;;15.70;;
33858;SDS011;20156;47.486;12.074;2022-11-18T09:02:27;21.30;;;18.20;;
33858;SDS011;20156;47.486;12.074;2022-11-18T09:04:53;25.00;;;21.93;;
33858;SDS011;20156;47.486;12.074;2022-11-18T09:07:18;15.57;;;12.27;;
33858;SDS011;20156;47.486;12.074;2022-11-18T09:09:45;22.03;;;19.77;;
33858;SDS011;20156;47.486;12.074;2022-11-18T09:12:10;18.73;;;16.77;;
33858;SDS011;20156;47.486;12.074;2022-11-18T09:14:41;14.80;;;12.50;;
33858;SDS011;20156;47.486;12.074;2022-11-18T09:17:07;17.17;;;15.20;;
33858;SDS011;20156;47.486;12.074;2022-11-18T09:19:33;12.07;;;10.77;;
33858;SDS011;20156;47.486;12.074;2022-11-18T09:21:59;14.70;;;11.40;;
33858;SDS011;20156;47.486;12.074;2022-11-18T09:24:24;12.33;;;10.47;;
33858;SDS011;20156;47.486;12.074;2022-11-18T09:26:49;11.40;;;8.30;;
33858;SDS011;20156;47.486;12.074;2022-11-18T09:29:17;9.70;;;8.60;;
33858;SDS011;20156;47.486;12.074;2022-11-18T09:31:43;10.67;;;8.60;;
33858;SDS011;20156;47.486;12.074;2022-11-18T09:34:09;9.80;;;8.80;;
33858;SDS011;20156;47.486;12.074;2022-11-18T09:36:35;12.13;;;9.53;;
33858;SDS011;20156;47.486;12.074;2022-11-18T09:39:00;12.50;;;9.70;;
33858;SDS011;20156;47.486;12.074;2022-11-18T09:49:33;15.17;;;11.47;;
33858;SDS011;20156;47.486;12.074;2022-11-18T09:52:02;15.03;;;10.87;;
33858;SDS011;20156;47.486;12.074;2022-11-18T09:54:36;11.33;;;9.53;;
33858;SDS011;20156;47.486;12.074;2022-11-18T09:57:02;12.87;;;9.20;;
33858;SDS011;20156;47.486;12.074;2022-11-18T09:59:37;12.20;;;9.20;;
33858;SDS011;20156;47.486;12.074;2022-11-18T10:04:38;9.67;;;8.23;;
33858;SDS011;20156;47.486;12.074;2022-11-18T10:07:05;10.73;;;8.43;;
33858;SDS011;20156;47.486;12.074;2022-11-18T10:09:39;9.53;;;7.90;;
33858;SDS011;20156;47.486;12.074;2022-11-18T10:17:58;8.80;;;7.83;;
33858;SDS011;20156;47.486;12.074;2022-11-18T10:23:28;9.97;;;8.03;;
33858;SDS011;20156;47.486;12.074;2022-11-18T10:25:59;14.77;;;9.87;;
33858;SDS011;20156;47.486;12.074;2022-11-18T10:28:26;11.07;;;9.03;;
33858;SDS011;20156;47.486;12.074;2022-11-18T10:31:03;12.97;;;9.67;;
33858;SDS011;20156;47.486;12.074;2022-11-18T10:33:33;10.77;;;9.07;;
33858;SDS011;20156;47.486;12.074;2022-11-18T10:38:39;9.83;;;8.30;;
33858;SDS011;20156;47.486;12.074;2022-11-18T10:41:06;10.67;;;9.30;;
33858;SDS011;20156;47.486;12.074;2022-11-18T10:43:51;8.40;;;7.50;;
33858;SDS011;20156;47.486;12.074;2022-11-18T10:51:38;10.00;;;7.93;;
33858;SDS011;20156;47.486;12.074;2022-11-18T10:54:22;11.40;;;7.85;;
33858;SDS011;20156;47.486;12.074;2022-11-18T11:00:01;8.70;;;7.60;;
33858;SDS011;20156;47.486;12.074;2022-11-18T11:04:44;8.38;;;7.53;;
33858;SDS011;20156;47.486;12.074;2022-11-18T11:07:25;11.88;;;8.68;;
33858;SDS011;20156;47.486;12.074;2022-11-18T11:13:09;9.05;;;8.15;;
33858;SDS011;20156;47.486;12.074;2022-11-18T11:15:46;8.73;;;7.85;;
33858;SDS011;20156;47.486;12.074;2022-11-18T11:18:21;9.10;;;8.20;;
33858;SDS011;20156;47.486;12.074;2022-11-18T11:21:10;9.00;;;7.32;;
33858;SDS011;20156;47.486;12.074;2022-11-18T11:23:40;8.32;;;7.50;;
33858;SDS011;20156;47.486;12.074;2022-11-18T11:26:21;9.17;;;7.87;;
33858;SDS011;20156;47.486;12.074;2022-11-18T11:45:08;13.25;;;9.73;;
33858;SDS011;20156;47.486;12.074;2022-11-18T11:50:49;8.95;;;8.05;;
33858;SDS011;20156;47.486;12.074;2022-11-18T12:07:05;18.80;;;13.20;;
33858;SDS011;20156;47.486;12.074;2022-11-18T12:10:23;15.27;;;12.67;;
33858;SDS011;20156;47.486;12.074;2022-11-18T12:17:44;17.23;;;14.02;;
33858;SDS011;20156;47.486;12.074;2022-11-18T12:20:45;20.88;;;18.67;;
33858;SDS011;20156;47.486;12.074;2022-11-18T12:26:01;11.43;;;10.38;;
33858;SDS011;20156;47.486;12.074;2022-11-18T12:33:52;13.40;;;10.52;;
33858;SDS011;20156;47.486;12.074;2022-11-18T12:36:38;12.70;;;11.07;;
33858;SDS011;20156;47.486;12.074;2022-11-18T12:44:39;11.02;;;9.90;;
33858;SDS011;20156;47.486;12.074;2022-11-18T12:47:05;12.07;;;10.55;;
33858;SDS011;20156;47.486;12.074;2022-11-18T12:51:59;18.58;;;12.05;;
33858;SDS011;20156;47.486;12.074;2022-11-18T12:54:45;17.90;;;14.20;;
33858;SDS011;20156;47.486;12.074;2022-11-18T12:57:23;18.55;;;15.65;;
33858;SDS011;20156;47.486;12.074;2022-11-18T12:59:52;19.10;;;15.70;;
33858;SDS011;20156;47.486;12.074;2022-11-18T13:04:43;13.27;;;11.50;;
33858;SDS011;20156;47.486;12.074;2022-11-18T13:07:10;16.90;;;12.77;;
33858;SDS011;20156;47.486;12.074;2022-11-18T13:09:57;14.00;;;12.60;;
33858;SDS011;20156;47.486;12.074;2022-11-18T13:12:26;14.70;;;12.95;;
33858;SDS011;20156;47.486;12.074;2022-11-18T13:14:53;15.95;;;13.13;;
33858;SDS011;20156;47.486;12.074;2022-11-18T13:17:39;14.95;;;13.32;;
33858;SDS011;20156;47.486;12.074;2022-11-18T13:20:26;15.32;;;12.18;;
33858;SDS011;20156;47.486;12.074;2022-11-18T13:26:43;14.82;;;12.27;;
33858;SDS011;20156;47.486;12.074;2022-11-18T13:34:00;13.80;;;12.10;;
33858;SDS011;20156;47.486;12.074;2022-11-18T13:36:27;15.77;;;12.70;;
33858;SDS011;20156;47.486;12.074;2022-11-18T13:38:53;14.97;;;13.37;;
33858;SDS011;20156;47.486;12.074;2022-11-18T13:41:28;13.65;;;12.23;;
33858;SDS011;20156;47.486;12.074;2022-11-18T13:46:40;10.37;;;9.27;;
33858;SDS011;20156;47.486;12.074;2022-11-18T13:49:10;15.00;;;10.25;;
33858;SDS011;20156;47.486;12.074;2022-11-18T13:51:43;17.13;;;13.13;;
33858;SDS011;20156;47.486;12.074;2022-11-18T13:54:10;13.60;;;11.40;;
33858;SDS011;20156;47.486;12.074;2022-11-18T13:56:46;10.32;;;9.32;;
33858;SDS011;20156;47.486;12.074;2022-11-18T13:59:14;9.80;;;8.85;;
33858;SDS011;20156;47.486;12.074;2022-11-18T14:01:43;10.48;;;9.25;;
33858;SDS011;20156;47.486;12.074;2022-11-18T14:06:41;16.20;;;12.40;;
33858;SDS011;20156;47.486;12.074;2022-11-18T14:11:39;11.90;;;10.00;;
33858;SDS011;20156;47.486;12.074;2022-11-18T14:14:07;8.80;;;8.00;;
33858;SDS011;20156;47.486;12.074;2022-11-18T14:16:36;9.10;;;8.18;;
33858;SDS011;20156;47.486;12.074;2022-11-18T14:19:02;26.65;;;17.95;;
33858;SDS011;20156;47.486;12.074;2022-11-18T14:21:29;15.20;;;11.23;;
33858;SDS011;20156;47.486;12.074;2022-11-18T14:23:57;14.40;;;12.90;;
33858;SDS011;20156;47.486;12.074;2022-11-18T14:26:30;14.33;;;12.87;;
33858;SDS011;20156;47.486;12.074;2022-11-18T14:28:59;14.93;;;13.37;;
33858;SDS011;20156;47.486;12.074;2022-11-18T14:31:27;15.03;;;13.43;;
33858;SDS011;20156;47.486;12.074;2022-11-18T14:36:48;14.50;;;11.27;;
33858;SDS011;20156;47.486;12.074;2022-11-18T14:39:20;12.30;;;11.00;;
33858;SDS011;20156;47.486;12.074;2022-11-18T14:41:48;15.10;;;13.50;;
33858;SDS011;20156;47.486;12.074;2022-11-18T14:44:15;16.93;;;13.20;;
33858;SDS011;20156;47.486;12.074;2022-11-18T14:46:42;16.80;;;14.55;;
33858;SDS011;20156;47.486;12.074;2022-11-18T14:49:17;15.30;;;13.05;;
33858;SDS011;20156;47.486;12.074;2022-11-18T14:51:45;14.60;;;12.68;;
33858;SDS011;20156;47.486;12.074;2022-11-18T14:54:13;14.25;;;12.85;;
33858;SDS011;20156;47.486;12.074;2022-11-18T14:56:40;14.10;;;12.07;;
33858;SDS011;20156;47.486;12.074;2022-11-18T14:59:09;12.03;;;10.83;;
33858;SDS011;20156;47.486;12.074;2022-11-18T15:01:36;11.40;;;10.20;;
33858;SDS011;20156;47.486;12.074;2022-11-18T15:04:01;10.70;;;9.60;;
33858;SDS011;20156;47.486;12.074;2022-11-18T15:06:27;10.05;;;9.13;;
33858;SDS011;20156;47.486;12.074;2022-11-18T15:08:52;14.00;;;12.30;;
33858;SDS011;20156;47.486;12.074;2022-11-18T15:11:18;27.77;;;22.03;;
33858;SDS011;20156;47.486;12.074;2022-11-18T15:13:44;24.40;;;19.97;;
33858;SDS011;20156;47.486;12.074;2022-11-18T15:18:35;11.67;;;10.47;;
33858;SDS011;20156;47.486;12.074;2022-11-18T15:21:01;12.67;;;10.47;;
33858;SDS011;20156;47.486;12.074;2022-11-18T15:23:26;15.07;;;13.47;;
33858;SDS011;20156;47.486;12.074;2022-11-18T15:25:51;13.57;;;12.07;;
33858;SDS011;20156;47.486;12.074;2022-11-18T15:28:17;11.17;;;9.97;;
33858;SDS011;20156;47.486;12.074;2022-11-18T15:30:42;9.93;;;8.93;;
33858;SDS011;20156;47.486;12.074;2022-11-18T15:33:08;9.73;;;8.63;;
33858;SDS011;20156;47.486;12.074;2022-11-18T15:35:33;11.60;;;9.60;;
33858;SDS011;20156;47.486;12.074;2022-11-18T15:37:59;9.83;;;8.90;;
33858;SDS011;20156;47.486;12.074;2022-11-18T15:40:24;8.83;;;8.03;;
33858;SDS011;20156;47.486;12.074;2022-11-18T15:42:50;9.43;;;8.53;;
33858;SDS011;20156;47.486;12.074;2022-11-18T15:45:15;10.17;;;9.23;;
33858;SDS011;20156;47.486;12.074;2022-11-18T15:47:41;19.50;;;16.33;;
33858;SDS011;20156;47.486;12.074;2022-11-18T15:50:06;21.23;;;18.93;;
33858;SDS011;20156;47.486;12.074;2022-11-18T15:52:32;18.67;;;16.33;;
33858;SDS011;20156;47.486;12.074;2022-11-18T15:54:57;14.43;;;12.93;;
33858;SDS011;20156;47.486;12.074;2022-11-18T15:57:22;20.70;;;18.10;;
33858;SDS011;20156;47.486;12.074;2022-11-18T15:59:48;45.47;;;35.20;;
33858;SDS011;20156;47.486;12.074;2022-11-18T16:02:13;19.33;;;17.00;;
33858;SDS011;20156;47.486;12.074;2022-11-18T16:04:39;30.50;;;26.20;;
33858;SDS011;20156;47.486;12.074;2022-11-18T16:07:04;22.20;;;19.40;;
33858;SDS011;20156;47.486;12.074;2022-11-18T16:09:30;16.50;;;14.33;;
33858;SDS011;20156;47.486;12.074;2022-11-18T16:12:14;17.77;;;15.43;;
33858;SDS011;20156;47.486;12.074;2022-11-18T16:14:58;18.03;;;14.13;;
33858;SDS011;20156;47.486;12.074;2022-11-18T16:17:42;18.00;;;14.30;;
33858;SDS011;20156;47.486;12.074;2022-11-18T16:20:08;16.43;;;13.07;;
33858;SDS011;20156;47.486;12.074;2022-11-18T16:22:34;16.27;;;13.97;;
33858;SDS011;20156;47.486;12.074;2022-11-18T16:24:59;16.90;;;13.90;;
33858;SDS011;20156;47.486;12.074;2022-11-18T16:27:25;15.87;;;13.70;;
33858;SDS011;20156;47.486;12.074;2022-11-18T16:29:50;15.30;;;13.50;;
33858;SDS011;20156;47.486;12.074;2022-11-18T16:32:16;15.13;;;13.53;;
33858;SDS011;20156;47.486;12.074;2022-11-18T16:34:41;12.67;;;11.37;;
33858;SDS011;20156;47.486;12.074;2022-11-18T16:37:07;9.87;;;8.80;;
33858;SDS011;20156;47.486;12.074;2022-11-18T16:39:32;9.00;;;7.73;;